Easter Island, Chile
Current Conditions -  °F | °C
As of 4:00 AM on Sunday 21 Dec 2014 (Local Time) from SCIP Reporting Station
Scattered Clouds Scattered Clouds  
Wind Chill: 19°   Ceiling: Unl
Heat Index: 19°   Visibility: 6mi
Dew Point: 16°   Wind: 6mph
Humidity: 83%   Direction: 90°E
Pressure: 30.27"   Gusts: NA
Location:  27.12°S, 109.37°W
Report Text: SCIP 211000Z 09005KT 030V170 9999 FEW020 SCT250 19/16 Q1025 NOSIG
Loading
Personal Weather Stations






























Interactive Weather Map New forecast layout! Learn more

10-Day Weather Forecast

Advertisements
Track Severe Weather on mobile